Time;durP1;ratioP1;P1;durP2;ratioP2;P2;SDS_P1;SDS_P2;PMS_P1;PMS_P2;Temp;Humidity;BMP_temperature;BMP_pressure;BME280_temperature;BME280_humidity;BME280_pressure;Samples;Min_cycle;Max_cycle;Signal;HPM_P1;HPM_P2
2022/07/15 00:02:05;;;;;;;8.48;2.90;;;;;;;13.74;89.12;102174.59;5009550;28;20045;-69
2022/07/15 00:04:31;;;;;;;9.82;3.17;;;;;;;13.67;89.11;102172.34;5010284;28;20070;-69
2022/07/15 00:06:56;;;;;;;5.13;2.50;;;;;;;13.58;89.48;102168.34;5009931;28;20038;-69
2022/07/15 00:10:13;;;;;;;13.82;3.80;;;;;;;13.55;89.47;102165.81;5010406;28;20043;-69
2022/07/15 00:12:08;;;;;;;8.40;2.95;;;;;;;13.54;89.69;102172.13;5009884;28;20038;-70
2022/07/15 00:14:34;;;;;;;9.27;2.92;;;;;;;13.57;89.83;102177.34;5009515;28;20023;-69
2022/07/15 00:16:59;;;;;;;7.75;2.55;;;;;;;13.60;89.70;102176.28;5009510;28;20036;-69
2022/07/15 00:19:25;;;;;;;8.13;3.28;;;;;;;13.49;90.15;102171.53;5008355;28;20038;-70
2022/07/15 00:21:50;;;;;;;8.43;2.40;;;;;;;13.45;90.29;102181.56;5008672;28;20041;-69
2022/07/15 00:24:16;;;;;;;11.00;3.47;;;;;;;13.37;90.50;102173.06;5008543;28;20023;-69
2022/07/15 00:26:41;;;;;;;7.28;3.35;;;;;;;13.41;90.19;102171.97;5009742;28;20039;-69
2022/07/15 00:29:07;;;;;;;4.07;2.20;;;;;;;13.43;89.97;102167.38;4992124;28;20049;-69
2022/07/15 00:31:33;;;;;;;9.88;2.67;;;;;;;13.33;90.85;102167.94;5008456;28;20037;-70
2022/07/15 00:33:58;;;;;;;10.10;3.15;;;;;;;13.33;90.90;102176.84;5008175;28;20057;-69
2022/07/15 00:36:24;;;;;;;6.78;2.30;;;;;;;13.09;91.62;102176.28;4991902;28;20031;-69
2022/07/15 00:38:49;;;;;;;8.02;2.90;;;;;;;13.08;91.43;102179.94;5009354;28;20030;-69
2022/07/15 00:41:15;;;;;;;5.53;2.55;;;;;;;13.09;91.42;102173.63;5008797;28;20048;-69
2022/07/15 00:43:41;;;;;;;9.70;2.63;;;;;;;12.90;91.78;102184.44;5008505;28;20085;-69
2022/07/15 00:46:06;;;;;;;7.35;2.78;;;;;;;12.75;92.79;102189.69;5007738;28;20053;-69
2022/07/15 00:48:32;;;;;;;10.38;3.03;;;;;;;12.76;92.74;102181.59;5007912;28;20037;-69
2022/07/15 00:50:58;;;;;;;7.15;3.13;;;;;;;12.83;92.22;102182.16;5008832;28;20110;-69
2022/07/15 00:53:28;;;;;;;7.20;2.75;;;;;;;12.73;93.05;102176.41;5008834;28;20057;-69
2022/07/15 00:55:58;;;;;;;7.18;2.97;;;;;;;12.64;93.29;102185.75;5028350;28;20085;-69
2022/07/15 00:58:26;;;;;;;10.27;2.72;;;;;;;12.69;93.27;102182.84;5028550;28;20061;-69
2022/07/15 01:00:53;;;;;;;18.60;2.90;;;;;;;12.69;92.79;102183.72;5000685;28;20042;-69
2022/07/15 01:03:19;;;;;;;7.93;3.28;;;;;;;12.67;93.89;102182.06;5007831;28;20033;-69
2022/07/15 01:05:47;;;;;;;5.68;2.88;;;;;;;12.72;94.24;102173.81;5008759;28;20042;-69
2022/07/15 01:08:14;;;;;;;7.30;2.70;;;;;;;12.68;95.22;102184.66;5008554;28;20046;-69
2022/07/15 01:10:41;;;;;;;11.98;3.25;;;;;;;12.66;95.11;102185.69;5008486;28;20058;-69
2022/07/15 01:13:07;;;;;;;7.00;3.00;;;;;;;12.70;94.75;102185.47;5008590;28;20022;-69
2022/07/15 01:15:33;;;;;;;12.85;3.78;;;;;;;12.64;94.81;102184.88;5008483;28;20055;-69
2022/07/15 01:18:02;;;;;;;8.15;2.92;;;;;;;12.62;95.75;102184.97;5007738;28;20046;-69
2022/07/15 01:20:28;;;;;;;9.13;4.13;;;;;;;12.61;95.69;102185.94;5007348;28;20038;-69
2022/07/15 01:22:56;;;;;;;8.85;3.08;;;;;;;12.43;96.95;102178.81;5007532;28;20027;-69
2022/07/15 01:25:27;;;;;;;7.18;3.10;;;;;;;12.39;96.75;102182.56;5007416;28;20049;-69
2022/07/15 01:27:53;;;;;;;9.50;2.85;;;;;;;12.51;95.49;102175.75;5008122;28;20026;-69
2022/07/15 01:30:23;;;;;;;14.13;3.33;;;;;;;12.47;96.60;102182.19;5008230;28;20054;-69
2022/07/15 01:32:48;;;;;;;14.15;3.20;;;;;;;12.50;96.84;102176.69;5008034;28;20034;-69
2022/07/15 01:35:14;;;;;;;9.68;2.97;;;;;;;12.52;96.87;102186.38;5007972;28;20114;-69
2022/07/15 01:37:43;;;;;;;9.23;3.17;;;;;;;12.47;97.51;102183.06;5006947;28;20054;-69
2022/07/15 01:40:10;;;;;;;8.07;2.70;;;;;;;12.46;96.93;102180.47;5006814;28;20110;-69
2022/07/15 01:42:36;;;;;;;8.57;3.13;;;;;;;12.47;97.48;102184.88;5007276;28;20038;-69
2022/07/15 01:45:03;;;;;;;10.15;2.92;;;;;;;12.46;97.39;102185.81;5022833;28;20046;-69
2022/07/15 01:47:28;;;;;;;7.32;2.85;;;;;;;12.56;97.26;102187.09;5008105;28;20026;-69
2022/07/15 01:49:54;;;;;;;6.07;2.53;;;;;;;12.52;97.09;102186.38;5006868;28;20041;-69
2022/07/15 01:52:46;;;;;;;12.38;3.22;;;;;;;12.53;95.60;102184.56;5007680;28;20110;-68
2022/07/15 01:55:11;;;;;;;8.82;3.08;;;;;;;12.66;94.51;102183.88;5020621;28;20030;-68
2022/07/15 01:57:38;;;;;;;12.02;3.17;;;;;;;12.60;95.94;102185.97;5027099;28;20083;-69
2022/07/15 02:00:07;;;;;;;8.65;2.85;;;;;;;12.43;95.58;102190.38;5026212;28;20310;-69
2022/07/15 02:02:46;;;;;;;10.48;3.17;;;;;;;12.34;96.73;102192.63;5026354;28;20053;-69
2022/07/15 02:05:14;;;;;;;7.80;3.28;;;;;;;12.57;96.76;102186.16;5026346;28;20033;-69
2022/07/15 02:07:40;;;;;;;8.00;3.42;;;;;;;12.86;95.51;102187.34;5027170;28;20044;-69
2022/07/15 02:10:08;;;;;;;9.48;3.40;;;;;;;12.96;95.44;102176.09;5026018;28;20026;-69
2022/07/15 02:12:34;;;;;;;8.63;3.17;;;;;;;12.87;95.10;102186.41;5025948;28;20099;-69
2022/07/15 02:14:59;;;;;;;10.85;3.35;;;;;;;13.03;94.86;102181.97;5009241;28;20030;-69
2022/07/15 02:17:34;;;;;;;5.88;3.00;;;;;;;13.06;95.10;102184.50;5025888;28;20045;-69
2022/07/15 02:20:00;;;;;;;14.65;3.40;;;;;;;13.10;95.23;102186.09;5025999;28;20030;-69
2022/07/15 02:22:25;;;;;;;15.75;3.90;;;;;;;13.13;94.74;102185.03;5027019;28;20045;-69
2022/07/15 02:24:50;;;;;;;13.02;3.33;;;;;;;13.23;94.25;102186.31;5025959;28;20033;-69
2022/07/15 02:27:21;;;;;;;14.93;4.00;;;;;;;13.24;94.26;102184.50;5025699;28;20032;-69
2022/07/15 02:29:46;;;;;;;12.30;3.72;;;;;;;13.33;93.94;102181.34;5025717;28;20092;-69
2022/07/15 02:32:13;;;;;;;8.48;3.85;;;;;;;13.39;93.68;102178.31;5025794;28;20125;-69
2022/07/15 02:34:41;;;;;;;8.05;4.20;;;;;;;13.48;93.34;102184.06;5025228;28;20042;-68
2022/07/15 02:37:06;;;;;;;8.88;4.15;;;;;;;13.42;92.82;102181.72;5025781;28;20040;-69
2022/07/15 02:39:32;;;;;;;9.65;3.97;;;;;;;13.50;93.58;102185.78;5025590;28;20057;-69
2022/07/15 02:41:58;;;;;;;9.80;4.15;;;;;;;13.43;93.21;102179.91;5025993;28;20029;-69
2022/07/15 02:44:24;;;;;;;20.05;5.15;;;;;;;13.40;93.06;102174.69;5025283;28;20026;-69
2022/07/15 02:46:49;;;;;;;7.90;4.00;;;;;;;13.48;94.10;102178.69;5025752;28;20242;-69
2022/07/15 02:49:20;;;;;;;13.60;4.50;;;;;;;13.54;93.56;102185.53;5025777;28;20033;-70
2022/07/15 02:51:46;;;;;;;16.17;4.70;;;;;;;13.52;93.73;102190.13;5025548;28;20046;-69
2022/07/15 02:54:12;;;;;;;11.35;4.07;;;;;;;13.66;93.57;102195.63;5025408;28;20366;-69
2022/07/15 02:56:39;;;;;;;10.63;4.75;;;;;;;13.67;93.22;102193.78;5025276;28;20030;-69
2022/07/15 02:59:05;;;;;;;7.47;3.90;;;;;;;13.68;93.32;102192.84;5025425;28;20040;-69
2022/07/15 03:01:31;;;;;;;9.38;4.35;;;;;;;13.68;93.57;102195.53;5025291;28;20030;-69
2022/07/15 03:03:57;;;;;;;13.07;4.68;;;;;;;13.70;92.64;102197.19;5025248;28;20029;-69
2022/07/15 03:06:23;;;;;;;7.40;3.47;;;;;;;13.86;93.00;102191.84;5028077;28;20045;-69
2022/07/15 03:08:49;;;;;;;11.70;4.60;;;;;;;13.78;93.29;102193.19;5028951;28;20044;-69
2022/07/15 03:11:17;;;;;;;10.45;3.80;;;;;;;13.76;92.19;102187.94;5028865;28;20088;-69
2022/07/15 03:13:44;;;;;;;13.40;4.15;;;;;;;13.70;92.67;102194.50;5029231;28;20038;-68
2022/07/15 03:16:09;;;;;;;13.77;4.45;;;;;;;13.75;93.52;102204.94;5029096;28;20040;-69
2022/07/15 03:18:36;;;;;;;14.32;4.60;;;;;;;13.86;93.11;102207.06;5028932;28;20125;-69
2022/07/15 03:21:03;;;;;;;8.90;3.65;;;;;;;13.85;93.14;102207.97;5029042;28;20030;-69
2022/07/15 03:23:29;;;;;;;12.25;3.90;;;;;;;13.82;93.59;102210.84;5028655;28;20049;-68
2022/07/15 03:25:56;;;;;;;11.90;3.80;;;;;;;13.89;93.34;102215.78;5012701;28;20025;-69
2022/07/15 03:28:21;;;;;;;10.23;4.03;;;;;;;13.92;93.82;102215.63;5012602;28;20068;-70
2022/07/15 03:30:48;;;;;;;12.65;3.60;;;;;;;13.86;93.71;102220.47;5012247;28;20045;-68
2022/07/15 03:33:14;;;;;;;15.95;3.42;;;;;;;13.92;93.74;102215.63;5012533;28;20216;-69
2022/07/15 03:35:42;;;;;;;11.82;3.75;;;;;;;13.91;93.92;102215.72;5028160;28;20026;-69
2022/07/15 03:38:08;;;;;;;15.23;4.05;;;;;;;13.94;94.27;102216.38;5028431;28;20225;-68
2022/07/15 03:40:35;;;;;;;8.75;3.40;;;;;;;13.93;94.80;102224.53;5028349;28;20029;-68
2022/07/15 03:43:01;;;;;;;5.85;3.40;;;;;;;13.77;96.58;102215.59;5029330;28;20042;-71
2022/07/15 03:45:28;;;;;;;10.43;4.45;;;;;;;13.88;95.50;102218.56;5011932;28;20038;-71
2022/07/15 03:47:54;;;;;;;10.85;3.30;;;;;;;13.89;95.56;102225.66;5028259;28;20034;-69
2022/07/15 03:50:19;;;;;;;11.63;4.88;;;;;;;13.84;95.14;102222.34;5028309;28;20556;-69
2022/07/15 03:52:45;;;;;;;9.95;3.53;;;;;;;13.78;95.44;102220.00;5028089;28;20072;-68
2022/07/15 03:55:11;;;;;;;8.68;3.95;;;;;;;13.86;94.45;102224.00;5029239;28;20034;-70
2022/07/15 03:57:38;;;;;;;6.75;3.22;;;;;;;13.96;94.22;102235.09;5027986;28;20048;-70
2022/07/15 04:00:04;;;;;;;6.78;2.58;;;;;;;13.93;95.88;102233.44;5027855;28;20034;-70
2022/07/15 04:02:40;;;;;;;6.07;3.42;;;;;;;14.04;96.27;102242.69;5029456;28;20030;-70
2022/07/15 04:05:06;;;;;;;8.20;3.70;;;;;;;13.94;96.01;102242.34;5029408;28;20048;-70
2022/07/15 04:07:32;;;;;;;13.00;3.17;;;;;;;13.98;95.53;102244.78;5029245;28;20085;-70
2022/07/15 04:09:57;;;;;;;13.77;4.15;;;;;;;13.98;95.92;102243.91;5029152;28;20053;-70
2022/07/15 04:12:22;;;;;;;15.73;3.50;;;;;;;14.06;95.43;102243.50;5029307;28;20038;-70
2022/07/15 04:14:48;;;;;;;7.57;2.80;;;;;;;14.09;95.68;102244.19;5027994;28;20045;-70
2022/07/15 04:17:15;;;;;;;8.80;2.80;;;;;;;14.20;95.35;102247.13;5026820;28;20102;-70
2022/07/15 04:19:41;;;;;;;6.18;2.92;;;;;;;14.14;94.99;102246.59;5027727;28;20053;-70
2022/07/15 04:22:06;;;;;;;8.73;3.20;;;;;;;14.16;95.74;102252.78;5011500;28;20046;-71
2022/07/15 04:24:46;;;;;;;8.50;2.35;;;;;;;14.38;94.80;102253.28;5027714;28;20264;-70
2022/07/15 04:27:14;;;;;;;6.97;2.33;;;;;;;14.45;94.28;102246.59;5027827;28;20036;-70
2022/07/15 04:29:39;;;;;;;10.15;2.88;;;;;;;14.39;93.32;102248.78;5028890;28;20053;-70
2022/07/15 04:32:06;;;;;;;6.03;2.15;;;;;;;14.59;93.19;102245.84;5027620;28;20076;-70
2022/07/15 04:34:36;;;;;;;11.10;2.30;;;;;;;14.65;92.52;102245.47;5027501;28;20041;-70
2022/07/15 04:37:02;;;;;;;8.23;2.40;;;;;;;14.76;90.83;102251.13;5028571;28;20112;-70
2022/07/15 04:39:28;;;;;;;7.82;2.17;;;;;;;14.76;90.49;102247.56;5027259;28;20026;-70
2022/07/15 04:41:56;;;;;;;9.13;2.00;;;;;;;14.87;90.27;102252.31;5027685;28;20037;-69
2022/07/15 04:44:22;;;;;;;16.80;2.65;;;;;;;14.93;89.93;102246.56;5027946;28;20034;-70
2022/07/15 04:46:48;;;;;;;10.70;2.47;;;;;;;15.00;89.87;102247.91;5027184;28;20042;-69
2022/07/15 04:52:33;;;;;;;9.15;2.30;;;;;;;15.11;88.50;102253.53;5027075;28;20048;-69
2022/07/15 04:54:59;;;;;;;5.63;2.05;;;;;;;15.34;88.17;102253.97;5027063;28;20121;-69
2022/07/15 04:57:25;;;;;;;9.75;2.45;;;;;;;15.23;88.13;102252.78;5027051;28;20039;-70
2022/07/15 04:59:50;;;;;;;9.00;2.60;;;;;;;15.27;88.35;102262.41;5027167;28;20034;-70
2022/07/15 05:02:17;;;;;;;12.23;2.33;;;;;;;15.31;87.52;102264.88;5027000;28;20025;-70
2022/07/15 05:04:47;;;;;;;8.48;2.47;;;;;;;15.34;87.88;102267.41;5027356;28;20022;-70
2022/07/15 05:07:14;;;;;;;7.68;2.13;;;;;;;15.22;88.28;102266.31;5026936;28;20040;-70
2022/07/15 05:09:41;;;;;;;8.73;2.90;;;;;;;15.33;87.82;102260.31;5011819;28;20049;-69
2022/07/15 05:12:07;;;;;;;6.07;2.20;;;;;;;15.37;86.97;102264.53;5028069;28;20050;-69
2022/07/15 05:14:42;;;;;;;9.38;2.97;;;;;;;15.36;87.18;102271.75;5026352;28;20297;-70
2022/07/15 05:17:08;;;;;;;12.23;3.60;;;;;;;15.64;86.41;102262.00;5024821;28;20038;-69
2022/07/15 05:19:34;;;;;;;6.93;2.88;;;;;;;15.77;85.89;102261.16;5025217;28;20026;-69
2022/07/15 05:22:00;;;;;;;9.13;2.78;;;;;;;15.70;85.32;102270.53;5025324;28;20021;-70
2022/07/15 05:24:28;;;;;;;10.45;2.67;;;;;;;15.84;85.38;102266.13;5027076;28;20022;-70
2022/07/15 05:26:54;;;;;;;10.95;3.45;;;;;;;15.89;84.09;102267.56;5027178;28;20036;-69
2022/07/15 05:29:23;;;;;;;7.95;2.78;;;;;;;16.04;83.50;102257.66;5028745;28;20041;-70
2022/07/15 05:31:51;;;;;;;12.60;3.10;;;;;;;16.24;83.10;102265.31;5027113;28;20057;-70
2022/07/15 05:34:17;;;;;;;10.63;3.38;;;;;;;16.73;81.68;102262.16;5024911;28;20044;-69
2022/07/15 05:36:42;;;;;;;12.63;3.00;;;;;;;16.86;80.47;102269.41;4985161;28;20053;-68
2022/07/15 05:39:11;;;;;;;11.38;2.90;;;;;;;16.97;81.11;102262.34;4999587;28;20148;-68
2022/07/15 05:41:36;;;;;;;13.77;2.88;;;;;;;17.13;80.85;102267.56;5000069;28;20146;-68
2022/07/15 05:44:05;;;;;;;14.43;3.42;;;;;;;18.42;74.67;102261.13;4983812;28;20034;-68
2022/07/15 05:46:35;;;;;;;8.70;2.75;;;;;;;18.41;72.97;102259.41;4999714;28;20850;-67
2022/07/15 05:49:03;;;;;;;8.60;2.47;;;;;;;18.49;72.91;102260.56;4999972;28;20081;-68
2022/07/15 05:51:28;;;;;;;7.93;2.22;;;;;;;19.15;70.38;102259.16;4999631;28;20162;-69
2022/07/15 05:53:57;;;;;;;6.93;2.08;;;;;;;19.30;71.64;102265.22;4997583;28;20041;-68
2022/07/15 05:56:23;;;;;;;8.32;1.90;;;;;;;18.94;71.46;102259.97;4998349;28;20046;-68
2022/07/15 05:58:48;;;;;;;7.82;1.80;;;;;;;19.59;68.69;102254.88;4998937;28;20746;-67
2022/07/15 06:01:14;;;;;;;9.02;1.90;;;;;;;20.13;66.67;102254.16;4998544;28;20033;-68
2022/07/15 06:03:40;;;;;;;7.13;1.77;;;;;;;20.42;63.79;102254.44;4998311;28;20042;-68
2022/07/15 06:06:07;;;;;;;7.75;2.05;;;;;;;20.91;62.14;102250.38;4998543;28;20773;-68
2022/07/15 06:08:35;;;;;;;11.70;2.63;;;;;;;20.97;62.56;102249.00;4982067;28;20109;-68
2022/07/15 06:11:01;;;;;;;7.50;1.42;;;;;;;21.04;61.45;102252.06;4997878;28;20038;-67
2022/07/15 06:13:28;;;;;;;10.18;1.83;;;;;;;20.48;62.82;102253.09;4997599;28;20036;-66
2022/07/15 06:15:53;;;;;;;10.73;2.13;;;;;;;20.53;63.96;102256.28;4999040;28;20050;-68
2022/07/15 06:18:25;;;;;;;5.90;1.80;;;;;;;20.76;63.07;102251.66;4997581;28;20038;-69
2022/07/15 06:20:57;;;;;;;7.10;2.08;;;;;;;21.21;62.90;102251.47;4998519;28;20425;-68
2022/07/15 06:23:23;;;;;;;5.28;1.60;;;;;;;21.32;60.70;102258.69;4983805;28;20092;-67
2022/07/15 06:25:48;;;;;;;4.47;1.65;;;;;;;21.26;61.12;102256.50;5011133;28;20041;-66
2022/07/15 06:28:14;;;;;;;8.93;1.92;;;;;;;20.84;62.36;102254.59;5024340;28;20037;-69
2022/07/15 06:30:39;;;;;;;3.70;1.40;;;;;;;20.92;63.08;102251.22;5022652;28;20042;-69
2022/07/15 06:33:05;;;;;;;6.35;1.70;;;;;;;21.53;60.37;102245.13;5021597;28;20052;-68
2022/07/15 06:35:30;;;;;;;7.75;1.63;;;;;;;21.43;60.76;102251.34;5020614;28;20021;-69
2022/07/15 06:37:56;;;;;;;6.85;2.00;;;;;;;21.80;59.05;102249.97;5022229;28;20048;-69
2022/07/15 06:40:25;;;;;;;8.35;1.95;;;;;;;21.68;58.11;102250.06;5022642;28;20037;-69
2022/07/15 06:42:50;;;;;;;8.88;1.83;;;;;;;21.78;59.88;102246.53;5026580;28;20395;-69
2022/07/15 06:45:23;;;;;;;5.47;1.75;;;;;;;21.69;58.06;102245.50;5023346;28;20053;-69
2022/07/15 06:47:49;;;;;;;3.63;1.50;;;;;;;20.73;60.36;102251.91;5026052;28;20072;-68
2022/07/15 06:50:14;;;;;;;8.88;1.58;;;;;;;19.86;62.43;102259.91;5004083;28;20050;-68
2022/07/15 06:52:43;;;;;;;6.38;1.42;;;;;;;20.77;61.02;102257.94;5001497;28;20103;-69
2022/07/15 06:55:11;;;;;;;5.20;1.70;;;;;;;21.58;57.79;102242.84;4984782;28;20060;-68
2022/07/15 06:57:37;;;;;;;5.05;1.55;;;;;;;21.70;57.07;102244.50;4985521;28;20064;-68
2022/07/15 07:00:03;;;;;;;5.95;1.42;;;;;;;21.97;54.62;102243.91;5001108;28;20038;-67
2022/07/15 07:02:30;;;;;;;5.18;1.63;;;;;;;22.33;55.20;102238.88;5001185;28;20041;-68
2022/07/15 07:04:56;;;;;;;8.30;1.80;;;;;;;22.11;56.10;102245.41;5001352;28;20476;-68
2022/07/15 07:07:24;;;;;;;8.07;1.58;;;;;;;22.05;56.50;102248.66;5002955;28;20037;-68
2022/07/15 07:09:50;;;;;;;3.78;1.70;;;;;;;22.58;54.82;102248.38;5001079;28;20141;-68
2022/07/15 07:12:16;;;;;;;6.95;1.30;;;;;;;21.70;54.53;102249.94;5001457;28;20048;-67
2022/07/15 07:14:41;;;;;;;4.72;0.93;;;;;;;21.32;52.29;102256.84;5002471;28;20038;-69
2022/07/15 07:17:07;;;;;;;4.47;1.08;;;;;;;21.28;52.15;102251.78;5001439;28;20108;-67
2022/07/15 07:19:32;;;;;;;5.00;1.17;;;;;;;21.19;54.86;102261.59;5001265;28;20030;-68
2022/07/15 07:21:57;;;;;;;5.90;1.40;;;;;;;21.34;55.21;102259.44;5002574;28;20474;-69
2022/07/15 07:24:23;;;;;;;6.80;0.90;;;;;;;20.79;53.54;102261.41;5000955;28;20050;-68
2022/07/15 07:26:48;;;;;;;3.53;1.10;;;;;;;20.80;53.26;102263.13;5001551;28;20057;-68
2022/07/15 07:29:16;;;;;;;2.60;1.00;;;;;;;20.45;52.94;102258.75;5001921;28;20053;-67
2022/07/15 07:31:41;;;;;;;4.00;0.73;;;;;;;20.85;49.86;102255.47;5001788;28;20062;-67
2022/07/15 07:34:07;;;;;;;2.03;0.80;;;;;;;20.88;53.61;102253.38;5000987;28;20275;-68
2022/07/15 07:36:32;;;;;;;5.95;1.10;;;;;;;22.05;51.60;102252.22;5007408;28;20391;-69
2022/07/15 07:38:58;;;;;;;7.35;1.30;;;;;;;21.64;50.09;102258.63;5002669;28;20092;-68
2022/07/15 07:41:23;;;;;;;2.70;0.98;;;;;;;21.37;49.08;102257.31;5002375;28;20042;-68
2022/07/15 07:43:49;;;;;;;3.67;0.70;;;;;;;21.33;49.73;102264.00;5000919;28;20038;-67
2022/07/15 07:46:16;;;;;;;1.95;0.60;;;;;;;21.57;49.59;102261.00;5002415;28;20344;-67
2022/07/15 07:48:46;;;;;;;2.47;0.70;;;;;;;21.09;48.00;102269.66;5002238;28;20041;-67
2022/07/15 07:51:11;;;;;;;1.40;0.55;;;;;;;21.43;49.54;102266.78;5002639;28;20045;-67
2022/07/15 07:53:36;;;;;;;3.67;0.82;;;;;;;21.64;46.85;102264.91;5001619;28;20053;-68
2022/07/15 07:56:03;;;;;;;2.10;0.68;;;;;;;21.88;47.57;102266.44;5001947;28;20038;-67
2022/07/15 07:58:28;;;;;;;4.82;0.85;;;;;;;21.64;48.59;102266.78;4999812;28;20493;-67
2022/07/15 08:00:57;;;;;;;3.63;0.60;;;;;;;21.45;48.39;102264.81;4991638;28;20046;-67
2022/07/15 08:03:27;;;;;;;3.65;0.68;;;;;;;21.44;49.70;102261.22;4981349;28;20131;-67
2022/07/15 08:05:59;;;;;;;5.55;0.93;;;;;;;21.83;50.61;102261.41;4983408;28;20038;-68
2022/07/15 08:08:25;;;;;;;4.60;0.95;;;;;;;22.35;44.23;102258.66;4982976;28;20133;-67
2022/07/15 08:10:54;;;;;;;1.38;0.45;;;;;;;22.07;43.67;102257.53;4982760;28;20129;-67
2022/07/15 08:13:23;;;;;;;1.02;0.50;;;;;;;22.73;47.69;102261.41;4981252;28;20049;-70
2022/07/15 08:15:50;;;;;;;2.15;0.60;;;;;;;21.83;45.59;102264.13;4981687;28;20050;-67
2022/07/15 08:18:19;;;;;;;4.43;0.85;;;;;;;22.02;46.61;102262.50;4982684;28;20673;-67
2022/07/15 08:20:44;;;;;;;3.95;0.95;;;;;;;22.56;45.12;102261.25;4982937;28;20050;-68
2022/07/15 08:23:10;;;;;;;0.95;0.63;;;;;;;21.54;44.63;102261.28;4983071;28;20042;-67
2022/07/15 08:25:37;;;;;;;5.20;0.65;;;;;;;22.54;46.64;102269.56;4983303;28;20050;-68
2022/07/15 08:28:06;;;;;;;1.90;0.70;;;;;;;23.17;41.74;102274.63;4982671;28;20038;-68
2022/07/15 08:30:36;;;;;;;1.85;0.52;;;;;;;23.61;40.40;102264.09;4981364;28;20061;-68
2022/07/15 08:33:02;;;;;;;1.83;0.88;;;;;;;23.23;41.27;102265.88;4982653;28;20105;-68
2022/07/15 08:35:28;;;;;;;1.92;0.50;;;;;;;23.32;44.10;102266.88;4982755;28;20085;-68
2022/07/15 08:37:57;;;;;;;1.20;0.50;;;;;;;22.78;43.29;102266.41;4983092;28;20076;-68
2022/07/15 08:40:26;;;;;;;1.80;0.50;;;;;;;22.86;45.78;102269.31;4982133;28;20129;-68
2022/07/15 08:42:54;;;;;;;1.42;0.40;;;;;;;22.26;43.41;102271.22;4981894;28;20088;-68
2022/07/15 08:45:20;;;;;;;1.85;0.57;;;;;;;21.89;43.35;102273.63;4980565;28;20047;-67
2022/07/15 08:47:54;;;;;;;2.65;0.60;;;;;;;22.75;42.54;102262.16;4980534;28;20092;-67
2022/07/15 08:50:20;;;;;;;1.25;0.40;;;;;;;22.70;42.23;102264.44;4982678;28;20042;-67
2022/07/15 08:52:47;;;;;;;1.38;0.43;;;;;;;22.75;40.69;102270.31;4980661;28;20046;-68
2022/07/15 08:55:15;;;;;;;1.80;0.40;;;;;;;23.25;40.64;102266.59;4996317;28;20508;-67
2022/07/15 08:57:49;;;;;;;2.78;0.60;;;;;;;22.02;42.30;102267.94;5000300;28;20844;-67
2022/07/15 09:00:19;;;;;;;0.60;0.40;;;;;;;21.73;46.00;102271.38;4995977;28;20057;-67
2022/07/15 09:02:47;;;;;;;1.42;0.57;;;;;;;22.49;44.24;102269.09;4983543;28;20534;-67
2022/07/15 09:05:30;;;;;;;1.08;0.50;;;;;;;22.16;41.01;102262.16;4983940;28;20125;-66
2022/07/15 09:08:11;;;;;;;0.63;0.50;;;;;;;23.02;42.30;102268.75;4980276;28;20042;-67
2022/07/15 09:10:42;;;;;;;1.65;0.68;;;;;;;22.90;41.40;102256.31;4981889;28;20035;-68
2022/07/15 09:13:09;;;;;;;2.35;0.40;;;;;;;22.88;43.96;102259.16;4981238;28;20057;-66
2022/07/15 09:15:36;;;;;;;2.53;0.43;;;;;;;23.17;39.63;102256.44;4982700;28;20045;-68
2022/07/15 09:18:11;;;;;;;4.22;0.65;;;;;;;24.29;38.86;102253.75;4982455;28;20211;-68
2022/07/15 09:20:37;;;;;;;1.05;0.50;;;;;;;23.37;39.00;102248.22;4983206;28;20061;-67
2022/07/15 09:23:06;;;;;;;1.30;0.57;;;;;;;23.25;38.96;102250.28;4982977;28;20042;-68
2022/07/15 09:25:33;;;;;;;3.35;0.55;;;;;;;24.52;39.10;102243.31;4982277;28;20042;-67
2022/07/15 09:28:01;;;;;;;2.75;0.47;;;;;;;25.28;35.86;102237.38;4982351;28;20107;-67
2022/07/15 09:33:40;;;;;;;2.60;0.50;;;;;;;25.88;43.72;102234.69;4982910;28;20042;-67
2022/07/15 09:36:15;;;;;;;0.57;0.50;;;;;;;25.39;37.71;102230.78;4982313;28;20046;-66
2022/07/15 09:38:45;;;;;;;1.17;0.45;;;;;;;25.73;37.36;102226.22;4982168;28;20124;-67
2022/07/15 09:41:25;;;;;;;2.40;0.55;;;;;;;25.41;37.29;102236.97;4982084;28;20141;-67
2022/07/15 09:44:25;;;;;;;4.65;0.77;;;;;;;24.76;38.00;102243.56;4983798;28;20038;-67
2022/07/15 09:47:01;;;;;;;1.48;0.50;;;;;;;23.21;40.96;102240.69;4982864;28;20714;-68
2022/07/15 09:49:29;;;;;;;6.18;0.65;;;;;;;23.86;41.69;102244.38;4982271;28;20057;-68
2022/07/15 09:52:01;;;;;;;2.05;0.50;;;;;;;22.96;45.98;102248.44;4980615;28;20042;-67
2022/07/15 09:54:32;;;;;;;3.05;0.55;;;;;;;22.77;41.47;102259.28;4987472;28;20060;-66
2022/07/15 09:56:59;;;;;;;2.17;0.52;;;;;;;22.53;40.87;102259.66;5000218;28;20041;-68
2022/07/15 09:59:25;;;;;;;1.10;0.60;;;;;;;22.68;41.04;102262.84;5000273;28;20394;-69
2022/07/15 10:01:54;;;;;;;5.82;0.90;;;;;;;23.26;41.55;102268.31;4980405;28;20042;-68
2022/07/15 10:04:23;;;;;;;0.88;0.40;;;;;;;22.96;42.46;102269.34;4981004;28;20145;-67
2022/07/15 10:06:50;;;;;;;1.20;0.68;;;;;;;23.23;42.89;102268.59;4980902;28;20030;-68
2022/07/15 10:09:22;;;;;;;2.47;0.77;;;;;;;23.09;47.04;102269.03;4980272;28;20069;-68
2022/07/15 10:11:52;;;;;;;2.00;0.47;;;;;;;23.32;41.01;102259.56;4980048;28;20137;-67
2022/07/15 10:14:54;;;;;;;1.55;0.40;;;;;;;22.84;43.03;102259.56;4978240;28;20049;-67
2022/07/15 10:17:32;;;;;;;2.47;1.00;;;;;;;22.88;43.50;102264.59;4979998;28;20188;-68
2022/07/15 10:20:04;;;;;;;26.42;1.42;;;;;;;23.82;42.03;102258.47;4980229;28;20046;-67
2022/07/15 10:22:48;;;;;;;;;;;;;;;24.97;41.20;102251.44;4978801;28;20057;-68
2022/07/15 10:25:39;;;;;;;3.13;1.17;;;;;;;24.59;39.09;102252.59;4979911;28;19928;-68
2022/07/15 10:28:19;;;;;;;7.50;1.33;;;;;;;24.57;40.40;102248.31;4978215;28;20053;-67
2022/07/15 10:30:45;;;;;;;5.80;1.00;;;;;;;24.14;39.96;102236.22;4979810;28;20122;-67
2022/07/15 10:33:19;;;;;;;3.63;0.85;;;;;;;24.88;42.22;102240.59;4979900;28;20125;-67
2022/07/15 10:35:48;;;;;;;7.00;1.13;;;;;;;24.25;41.53;102236.88;4978944;28;20054;-67
2022/07/15 10:38:34;;;;;;;7.68;0.85;;;;;;;24.09;42.23;102233.06;4980217;28;20042;-68
2022/07/15 10:41:14;;;;;;;5.35;1.00;;;;;;;24.85;41.47;102232.72;4980077;28;20053;-68
2022/07/15 10:43:50;;;;;;;2.58;0.98;;;;;;;24.28;42.19;102228.38;4980193;28;20050;-68
2022/07/15 10:46:16;;;;;;;3.90;1.05;;;;;;;24.95;41.45;102220.72;4979892;28;20585;-68
2022/07/15 10:48:45;;;;;;;2.47;0.80;;;;;;;25.42;42.65;102217.69;4979705;28;20034;-68
2022/07/15 10:51:12;;;;;;;1.98;0.90;;;;;;;24.40;40.35;102225.44;4980023;28;20023;-68
2022/07/15 10:53:47;;;;;;;5.82;1.40;;;;;;;24.54;42.65;102214.88;4981264;28;20635;-68
2022/07/15 10:56:34;;;;;;;6.65;1.20;;;;;;;23.80;43.03;102212.31;4999996;28;20056;-68
2022/07/15 10:59:09;;;;;;;5.45;1.00;;;;;;;23.53;43.21;102213.94;4999910;28;20435;-68
2022/07/15 11:01:38;;;;;;;5.40;1.05;;;;;;;23.26;45.47;102217.44;4983844;28;20483;-67
2022/07/15 11:04:18;;;;;;;5.13;1.10;;;;;;;23.13;46.13;102207.88;4981168;28;20042;-68
2022/07/15 11:07:01;;;;;;;7.80;1.20;;;;;;;23.16;46.53;102204.88;4981234;28;20050;-67
2022/07/15 11:09:45;;;;;;;5.15;1.17;;;;;;;22.80;44.93;102207.31;4982179;28;20046;-67
2022/07/15 11:12:13;;;;;;;6.35;1.40;;;;;;;23.68;45.50;102202.59;4981735;28;20046;-67
2022/07/15 11:14:47;;;;;;;1.65;0.77;;;;;;;24.75;41.13;102202.78;4982152;28;20049;-67
2022/07/15 11:17:19;;;;;;;5.43;0.80;;;;;;;25.14;41.77;102199.72;4980721;28;20084;-67
2022/07/15 11:19:54;;;;;;;9.68;0.95;;;;;;;24.31;40.78;102205.41;4983953;28;20049;-67
2022/07/15 11:22:21;;;;;;;4.25;0.70;;;;;;;23.84;41.38;102194.63;4987582;28;20050;-68
2022/07/15 11:24:47;;;;;;;5.18;1.40;;;;;;;23.85;41.94;102187.34;4998418;28;20056;-68
2022/07/15 11:27:13;;;;;;;4.65;0.90;;;;;;;24.37;42.34;102193.91;4996183;28;20777;-66
2022/07/15 11:29:54;;;;;;;8.13;1.52;;;;;;;24.04;42.28;102193.50;4998140;28;20042;-67
2022/07/15 11:32:24;;;;;;;4.90;0.95;;;;;;;23.37;43.57;102196.50;5005877;28;20088;-68
2022/07/15 11:35:02;;;;;;;4.78;0.95;;;;;;;23.08;42.81;102204.72;4987292;28;20046;-68
2022/07/15 11:37:34;;;;;;;1.55;0.75;;;;;;;22.53;43.28;102208.00;4998258;28;20100;-68